sensor_id;sensor_type;location;lat;lon;timestamp;pressure;altitude;pressure_sealevel;temperature;humidity
51287;BME280;37364;46.974;18.916;2023-04-08T00:00:26;151194.16;;;3.35;100.00
51287;BME280;37364;46.974;18.916;2023-04-08T00:02:57;151181.31;;;3.30;100.00
51287;BME280;37364;46.974;18.916;2023-04-08T00:05:31;151180.03;;;3.29;100.00
51287;BME280;37364;46.974;18.916;2023-04-08T00:08:02;151174.84;;;3.27;100.00
51287;BME280;37364;46.974;18.916;2023-04-08T00:10:32;151185.19;;;3.31;100.00
51287;BME280;37364;46.974;18.916;2023-04-08T00:13:02;151173.56;;;3.27;100.00
51287;BME280;37364;46.974;18.916;2023-04-08T00:15:33;151186.44;;;3.32;100.00
51287;BME280;37364;46.974;18.916;2023-04-08T00:18:05;151183.84;;;3.31;100.00
51287;BME280;37364;46.974;18.916;2023-04-08T00:20:42;151182.56;;;3.30;100.00
51287;BME280;37364;46.974;18.916;2023-04-08T00:23:14;151177.44;;;3.28;100.00
51287;BME280;37364;46.974;18.916;2023-04-08T00:25:44;151176.16;;;3.28;100.00
51287;BME280;37364;46.974;18.916;2023-04-08T00:28:15;151172.28;;;3.26;100.00
51287;BME280;37364;46.974;18.916;2023-04-08T00:30:48;151162.00;;;3.22;100.00
51287;BME280;37364;46.974;18.916;2023-04-08T00:33:23;151178.72;;;3.29;100.00
51287;BME280;37364;46.974;18.916;2023-04-08T00:35:56;151172.28;;;3.26;100.00
51287;BME280;37364;46.974;18.916;2023-04-08T00:38:27;151156.84;;;3.20;100.00
51287;BME280;37364;46.974;18.916;2023-04-08T00:40:58;151156.84;;;3.20;100.00
51287;BME280;37364;46.974;18.916;2023-04-08T00:43:29;151137.53;;;3.12;100.00
51287;BME280;37364;46.974;18.916;2023-04-08T00:45:59;151140.06;;;3.13;100.00
51287;BME280;37364;46.974;18.916;2023-04-08T00:48:29;151136.25;;;3.12;100.00
51287;BME280;37364;46.974;18.916;2023-04-08T00:51:03;151143.94;;;3.15;100.00
51287;BME280;37364;46.974;18.916;2023-04-08T00:53:34;151142.66;;;3.14;100.00
51287;BME280;37364;46.974;18.916;2023-04-08T00:56:04;151150.41;;;3.17;100.00
51287;BME280;37364;46.974;18.916;2023-04-08T00:58:35;151137.53;;;3.12;100.00
51287;BME280;37364;46.974;18.916;2023-04-08T01:01:08;151150.41;;;3.17;100.00
51287;BME280;37364;46.974;18.916;2023-04-08T01:03:46;151145.22;;;3.15;100.00
51287;BME280;37364;46.974;18.916;2023-04-08T01:06:29;151132.38;;;3.10;100.00
51287;BME280;37364;46.974;18.916;2023-04-08T01:09:04;151133.66;;;3.11;100.00
51287;BME280;37364;46.974;18.916;2023-04-08T01:11:34;151145.22;;;3.15;100.00
51287;BME280;37364;46.974;18.916;2023-04-08T01:14:11;151140.06;;;3.13;100.00
51287;BME280;37364;46.974;18.916;2023-04-08T01:16:45;151118.19;;;3.05;100.00
51287;BME280;37364;46.974;18.916;2023-04-08T01:19:23;151107.91;;;3.01;100.00
51287;BME280;37364;46.974;18.916;2023-04-08T01:22:04;151113.06;;;3.03;100.00
51287;BME280;37364;46.974;18.916;2023-04-08T01:24:44;151114.34;;;3.03;100.00
51287;BME280;37364;46.974;18.916;2023-04-08T01:27:19;151110.47;;;3.02;100.00
51287;BME280;37364;46.974;18.916;2023-04-08T01:29:50;151105.31;;;3.00;100.00
51287;BME280;37364;46.974;18.916;2023-04-08T01:32:24;151095.00;;;2.95;100.00
51287;BME280;37364;46.974;18.916;2023-04-08T01:34:59;151097.63;;;2.96;100.00
51287;BME280;37364;46.974;18.916;2023-04-08T01:37:30;151100.16;;;2.97;100.00
51287;BME280;37364;46.974;18.916;2023-04-08T01:40:02;151097.63;;;2.96;100.00
51287;BME280;37364;46.974;18.916;2023-04-08T01:42:39;151091.16;;;2.94;100.00
51287;BME280;37364;46.974;18.916;2023-04-08T01:45:11;151095.00;;;2.95;100.00
51287;BME280;37364;46.974;18.916;2023-04-08T01:47:43;151097.63;;;2.96;100.00
51287;BME280;37364;46.974;18.916;2023-04-08T01:50:16;151097.63;;;2.96;100.00
51287;BME280;37364;46.974;18.916;2023-04-08T01:52:48;151107.91;;;3.01;100.00
51287;BME280;37364;46.974;18.916;2023-04-08T01:55:20;151106.63;;;3.00;100.00
51287;BME280;37364;46.974;18.916;2023-04-08T01:57:55;151102.75;;;2.99;100.00
51287;BME280;37364;46.974;18.916;2023-04-08T02:00:29;151102.75;;;2.99;100.00
51287;BME280;37364;46.974;18.916;2023-04-08T02:03:02;151092.47;;;2.94;100.00
51287;BME280;37364;46.974;18.916;2023-04-08T02:05:35;151097.63;;;2.96;100.00
51287;BME280;37364;46.974;18.916;2023-04-08T02:08:06;151098.88;;;2.97;100.00
51287;BME280;37364;46.974;18.916;2023-04-08T02:10:36;151083.44;;;2.91;100.00
51287;BME280;37364;46.974;18.916;2023-04-08T02:13:09;151071.88;;;2.86;100.00
51287;BME280;37364;46.974;18.916;2023-04-08T02:15:42;151068.00;;;2.85;100.00
51287;BME280;37364;46.974;18.916;2023-04-08T02:18:23;151062.88;;;2.83;100.00
51287;BME280;37364;46.974;18.916;2023-04-08T02:20:58;151062.88;;;2.83;100.00
51287;BME280;37364;46.974;18.916;2023-04-08T02:23:36;151062.88;;;2.83;100.00
51287;BME280;37364;46.974;18.916;2023-04-08T02:26:12;151069.28;;;2.85;100.00
51287;BME280;37364;46.974;18.916;2023-04-08T02:28:48;151062.88;;;2.83;100.00
51287;BME280;37364;46.974;18.916;2023-04-08T02:31:22;151078.31;;;2.89;100.00
51287;BME280;37364;46.974;18.916;2023-04-08T02:33:55;151068.00;;;2.85;100.00
51287;BME280;37364;46.974;18.916;2023-04-08T02:36:31;151068.00;;;2.85;100.00
51287;BME280;37364;46.974;18.916;2023-04-08T02:39:02;151075.69;;;2.88;100.00
51287;BME280;37364;46.974;18.916;2023-04-08T02:41:33;151068.00;;;2.85;100.00
51287;BME280;37364;46.974;18.916;2023-04-08T02:44:06;151075.69;;;2.88;100.00
51287;BME280;37364;46.974;18.916;2023-04-08T02:46:39;151061.53;;;2.82;100.00
51287;BME280;37364;46.974;18.916;2023-04-08T02:49:10;151074.44;;;2.87;100.00
51287;BME280;37364;46.974;18.916;2023-04-08T02:51:40;151093.75;;;2.95;100.00
51287;BME280;37364;46.974;18.916;2023-04-08T02:54:11;151078.31;;;2.89;100.00
51287;BME280;37364;46.974;18.916;2023-04-08T02:56:41;151080.84;;;2.90;100.00
51287;BME280;37364;46.974;18.916;2023-04-08T02:59:14;151073.16;;;2.87;100.00
51287;BME280;37364;46.974;18.916;2023-04-08T03:01:44;151065.41;;;2.84;100.00
51287;BME280;37364;46.974;18.916;2023-04-08T03:04:15;151073.16;;;2.87;100.00
51287;BME280;37364;46.974;18.916;2023-04-08T03:06:46;151075.69;;;2.88;100.00
51287;BME280;37364;46.974;18.916;2023-04-08T03:09:17;151092.47;;;2.94;100.00
51287;BME280;37364;46.974;18.916;2023-04-08T03:11:47;151057.72;;;2.81;100.00
51287;BME280;37364;46.974;18.916;2023-04-08T03:14:23;151073.16;;;2.87;100.00
51287;BME280;37364;46.974;18.916;2023-04-08T03:16:54;151083.44;;;2.91;100.00
51287;BME280;37364;46.974;18.916;2023-04-08T03:19:25;151087.31;;;2.92;100.00
51287;BME280;37364;46.974;18.916;2023-04-08T03:21:55;151075.69;;;2.88;100.00
51287;BME280;37364;46.974;18.916;2023-04-08T03:24:25;151051.25;;;2.78;100.00
51287;BME280;37364;46.974;18.916;2023-04-08T03:26:56;151073.16;;;2.87;100.00
51287;BME280;37364;46.974;18.916;2023-04-08T03:29:30;151075.69;;;2.88;100.00
51287;BME280;37364;46.974;18.916;2023-04-08T03:32:00;151064.13;;;2.83;100.00
51287;BME280;37364;46.974;18.916;2023-04-08T03:34:32;151075.69;;;2.88;100.00
51287;BME280;37364;46.974;18.916;2023-04-08T03:37:03;151069.28;;;2.85;100.00
51287;BME280;37364;46.974;18.916;2023-04-08T03:39:33;151070.56;;;2.86;100.00
51287;BME280;37364;46.974;18.916;2023-04-08T03:42:04;151068.00;;;2.85;100.00
51287;BME280;37364;46.974;18.916;2023-04-08T03:44:39;151078.31;;;2.89;100.00
51287;BME280;37364;46.974;18.916;2023-04-08T03:47:09;151083.44;;;2.91;100.00
51287;BME280;37364;46.974;18.916;2023-04-08T03:49:39;151065.41;;;2.84;100.00
51287;BME280;37364;46.974;18.916;2023-04-08T03:52:09;151074.44;;;2.87;100.00
51287;BME280;37364;46.974;18.916;2023-04-08T03:54:42;151079.56;;;2.89;100.00
51287;BME280;37364;46.974;18.916;2023-04-08T03:57:12;151068.00;;;2.85;100.00
51287;BME280;37364;46.974;18.916;2023-04-08T03:59:45;151057.72;;;2.81;100.00
51287;BME280;37364;46.974;18.916;2023-04-08T04:02:15;151060.25;;;2.82;100.00
51287;BME280;37364;46.974;18.916;2023-04-08T04:04:46;151062.88;;;2.83;100.00
51287;BME280;37364;46.974;18.916;2023-04-08T04:07:16;151078.31;;;2.89;100.00
51287;BME280;37364;46.974;18.916;2023-04-08T04:09:47;151082.16;;;2.90;100.00
51287;BME280;37364;46.974;18.916;2023-04-08T04:12:20;151079.56;;;2.89;100.00
51287;BME280;37364;46.974;18.916;2023-04-08T04:14:53;151059.00;;;2.81;100.00
51287;BME280;37364;46.974;18.916;2023-04-08T04:17:23;151083.44;;;2.91;100.00
51287;BME280;37364;46.974;18.916;2023-04-08T04:19:54;151079.56;;;2.89;100.00
51287;BME280;37364;46.974;18.916;2023-04-08T04:22:24;151065.41;;;2.84;100.00
51287;BME280;37364;46.974;18.916;2023-04-08T04:24:55;151057.72;;;2.81;100.00
51287;BME280;37364;46.974;18.916;2023-04-08T04:27:25;151060.25;;;2.82;100.00
51287;BME280;37364;46.974;18.916;2023-04-08T04:29:59;151084.72;;;2.91;100.00
51287;BME280;37364;46.974;18.916;2023-04-08T04:32:30;151091.16;;;2.94;100.00
51287;BME280;37364;46.974;18.916;2023-04-08T04:35:01;151089.88;;;2.93;100.00
51287;BME280;37364;46.974;18.916;2023-04-08T04:37:31;151079.56;;;2.89;100.00
51287;BME280;37364;46.974;18.916;2023-04-08T04:40:01;151064.13;;;2.83;100.00
51287;BME280;37364;46.974;18.916;2023-04-08T04:42:31;151070.56;;;2.86;100.00
51287;BME280;37364;46.974;18.916;2023-04-08T04:45:06;151086.00;;;2.92;100.00
51287;BME280;37364;46.974;18.916;2023-04-08T04:47:36;151086.00;;;2.92;100.00
51287;BME280;37364;46.974;18.916;2023-04-08T04:50:07;151096.34;;;2.96;100.00
51287;BME280;37364;46.974;18.916;2023-04-08T04:52:38;151105.31;;;3.00;100.00
51287;BME280;37364;46.974;18.916;2023-04-08T04:55:09;151115.59;;;3.04;100.00
51287;BME280;37364;46.974;18.916;2023-04-08T04:57:39;151119.47;;;3.05;100.00
51287;BME280;37364;46.974;18.916;2023-04-08T05:00:13;151131.09;;;3.10;100.00
51287;BME280;37364;46.974;18.916;2023-04-08T05:02:44;151133.66;;;3.11;100.00
51287;BME280;37364;46.974;18.916;2023-04-08T05:05:15;151136.25;;;3.12;100.00
51287;BME280;37364;46.974;18.916;2023-04-08T05:07:45;151118.19;;;3.05;100.00
51287;BME280;37364;46.974;18.916;2023-04-08T05:10:16;151127.22;;;3.08;100.00
51287;BME280;37364;46.974;18.916;2023-04-08T05:12:46;151145.22;;;3.15;100.00
51287;BME280;37364;46.974;18.916;2023-04-08T05:15:20;151150.41;;;3.17;100.00
51287;BME280;37364;46.974;18.916;2023-04-08T05:17:50;151150.41;;;3.17;100.00
51287;BME280;37364;46.974;18.916;2023-04-08T05:20:21;151167.13;;;3.24;100.00
51287;BME280;37364;46.974;18.916;2023-04-08T05:22:51;151159.38;;;3.21;100.00
51287;BME280;37364;46.974;18.916;2023-04-08T05:25:22;151168.41;;;3.25;100.00
51287;BME280;37364;46.974;18.916;2023-04-08T05:27:52;151162.00;;;3.22;100.00
51287;BME280;37364;46.974;18.916;2023-04-08T05:30:27;151176.16;;;3.28;100.00
51287;BME280;37364;46.974;18.916;2023-04-08T05:32:58;151168.41;;;3.25;100.00
51287;BME280;37364;46.974;18.916;2023-04-08T05:35:29;151178.72;;;3.29;100.00
51287;BME280;37364;46.974;18.916;2023-04-08T05:37:59;151169.69;;;3.25;100.00
51287;BME280;37364;46.974;18.916;2023-04-08T05:40:29;151177.44;;;3.28;100.00
51287;BME280;37364;46.974;18.916;2023-04-08T05:43:00;151183.84;;;3.31;100.00
51287;BME280;37364;46.974;18.916;2023-04-08T05:45:34;151190.31;;;3.33;100.00
51287;BME280;37364;46.974;18.916;2023-04-08T05:48:05;151186.44;;;3.32;100.00
51287;BME280;37364;46.974;18.916;2023-04-08T05:50:35;151195.47;;;3.35;100.00
51287;BME280;37364;46.974;18.916;2023-04-08T05:53:06;151207.06;;;3.40;100.00
51287;BME280;37364;46.974;18.916;2023-04-08T05:55:36;151201.91;;;3.38;100.00
51287;BME280;37364;46.974;18.916;2023-04-08T05:58:08;151227.66;;;3.48;100.00
51287;BME280;37364;46.974;18.916;2023-04-08T06:00:41;151231.53;;;3.50;100.00
51287;BME280;37364;46.974;18.916;2023-04-08T06:03:14;151240.53;;;3.53;100.00
51287;BME280;37364;46.974;18.916;2023-04-08T06:05:49;151218.63;;;3.45;100.00
51287;BME280;37364;46.974;18.916;2023-04-08T06:08:37;151227.66;;;3.48;100.00
51287;BME280;37364;46.974;18.916;2023-04-08T06:14:18;151232.78;;;3.50;100.00
51287;BME280;37364;46.974;18.916;2023-04-08T06:17:00;151256.00;;;3.60;100.00
51287;BME280;37364;46.974;18.916;2023-04-08T06:19:43;151243.09;;;3.54;100.00
51287;BME280;37364;46.974;18.916;2023-04-08T06:22:19;151237.94;;;3.52;100.00
51287;BME280;37364;46.974;18.916;2023-04-08T06:24:51;151249.56;;;3.57;100.00
51287;BME280;37364;46.974;18.916;2023-04-08T06:27:23;151263.75;;;3.63;100.00
51287;BME280;37364;46.974;18.916;2023-04-08T06:29:53;151281.75;;;3.70;100.00
51287;BME280;37364;46.974;18.916;2023-04-08T06:32:28;151279.19;;;3.69;100.00
51287;BME280;37364;46.974;18.916;2023-04-08T06:35:03;151312.66;;;3.82;100.00
51287;BME280;37364;46.974;18.916;2023-04-08T06:37:37;151330.69;;;3.89;100.00
51287;BME280;37364;46.974;18.916;2023-04-08T06:40:12;151323.00;;;3.86;100.00
51287;BME280;37364;46.974;18.916;2023-04-08T06:42:44;151338.44;;;3.92;100.00
51287;BME280;37364;46.974;18.916;2023-04-08T06:45:38;151343.59;;;3.94;100.00
51287;BME280;37364;46.974;18.916;2023-04-08T06:48:11;151369.34;;;4.05;100.00
51287;BME280;37364;46.974;18.916;2023-04-08T06:50:42;151391.25;;;4.13;100.00
51287;BME280;37364;46.974;18.916;2023-04-08T06:53:14;151387.41;;;4.12;100.00
51287;BME280;37364;46.974;18.916;2023-04-08T06:55:44;151402.88;;;4.18;100.00
51287;BME280;37364;46.974;18.916;2023-04-08T06:58:17;151418.31;;;4.24;100.00
51287;BME280;37364;46.974;18.916;2023-04-08T07:00:47;151453.13;;;4.38;100.00
51287;BME280;37364;46.974;18.916;2023-04-08T07:03:25;151451.84;;;4.38;100.00
51287;BME280;37364;46.974;18.916;2023-04-08T07:05:55;151405.41;;;4.19;100.00
51287;BME280;37364;46.974;18.916;2023-04-08T07:08:25;151392.56;;;4.14;100.00
51287;BME280;37364;46.974;18.916;2023-04-08T07:10:56;151400.25;;;4.17;100.00
51287;BME280;37364;46.974;18.916;2023-04-08T07:13:26;151420.88;;;4.25;100.00
51287;BME280;37364;46.974;18.916;2023-04-08T07:15:57;151423.47;;;4.26;100.00
51287;BME280;37364;46.974;18.916;2023-04-08T07:18:30;151414.44;;;4.23;100.00
51287;BME280;37364;46.974;18.916;2023-04-08T07:21:05;151405.41;;;4.19;100.00
51287;BME280;37364;46.974;18.916;2023-04-08T07:23:36;151401.59;;;4.18;100.00
51287;BME280;37364;46.974;18.916;2023-04-08T07:26:06;151418.31;;;4.24;100.00
51287;BME280;37364;46.974;18.916;2023-04-08T07:28:39;151436.38;;;4.31;100.00
51287;BME280;37364;46.974;18.916;2023-04-08T07:31:12;151436.38;;;4.31;100.00
51287;BME280;37364;46.974;18.916;2023-04-08T07:33:45;151413.16;;;4.22;100.00
51287;BME280;37364;46.974;18.916;2023-04-08T07:36:16;151411.91;;;4.22;100.00
51287;BME280;37364;46.974;18.916;2023-04-08T07:38:47;151433.78;;;4.30;100.00
51287;BME280;37364;46.974;18.916;2023-04-08T07:41:18;151445.34;;;4.35;100.00
51287;BME280;37364;46.974;18.916;2023-04-08T07:43:48;151464.69;;;4.43;100.00
51287;BME280;37364;46.974;18.916;2023-04-08T07:46:18;151449.25;;;4.36;100.00
51287;BME280;37364;46.974;18.916;2023-04-08T07:48:52;151457.00;;;4.40;100.00
51287;BME280;37364;46.974;18.916;2023-04-08T07:51:22;151467.31;;;4.44;100.00
51287;BME280;37364;46.974;18.916;2023-04-08T07:53:54;151431.22;;;4.29;100.00
51287;BME280;37364;46.974;18.916;2023-04-08T07:56:26;151435.06;;;4.31;100.00
51287;BME280;37364;46.974;18.916;2023-04-08T07:58:57;151478.88;;;4.48;100.00
51287;BME280;37364;46.974;18.916;2023-04-08T08:01:27;151490.50;;;4.53;100.00
51287;BME280;37364;46.974;18.916;2023-04-08T08:04:03;151469.84;;;4.45;100.00
51287;BME280;37364;46.974;18.916;2023-04-08T08:06:34;151500.81;;;4.57;100.00
51287;BME280;37364;46.974;18.916;2023-04-08T08:09:04;151515.00;;;4.63;100.00
51287;BME280;37364;46.974;18.916;2023-04-08T08:11:34;151527.88;;;4.68;100.00
51287;BME280;37364;46.974;18.916;2023-04-08T08:14:05;151567.81;;;4.84;100.00
51287;BME280;37364;46.974;18.916;2023-04-08T08:16:37;151600.06;;;4.97;100.00
51287;BME280;37364;46.974;18.916;2023-04-08T08:19:12;151578.13;;;4.88;100.00
51287;BME280;37364;46.974;18.916;2023-04-08T08:21:42;151498.22;;;4.56;100.00
51287;BME280;37364;46.974;18.916;2023-04-08T08:24:13;151499.50;;;4.56;100.00
51287;BME280;37364;46.974;18.916;2023-04-08T08:26:46;151520.16;;;4.65;100.00
51287;BME280;37364;46.974;18.916;2023-04-08T08:29:16;151489.19;;;4.52;100.00
51287;BME280;37364;46.974;18.916;2023-04-08T08:31:47;151557.50;;;4.80;100.00
51287;BME280;37364;46.974;18.916;2023-04-08T08:34:19;151582.00;;;4.89;100.00
51287;BME280;37364;46.974;18.916;2023-04-08T08:36:49;151647.81;;;5.15;100.00
51287;BME280;37364;46.974;18.916;2023-04-08T08:39:20;151687.78;;;5.31;100.00
51287;BME280;37364;46.974;18.916;2023-04-08T08:41:50;151651.63;;;5.17;100.00
51287;BME280;37364;46.974;18.916;2023-04-08T08:44:22;151672.31;;;5.25;100.00
51287;BME280;37364;46.974;18.916;2023-04-08T08:46:55;151674.84;;;5.26;100.00
51287;BME280;37364;46.974;18.916;2023-04-08T08:49:28;151717.44;;;5.43;100.00
51287;BME280;37364;46.974;18.916;2023-04-08T08:51:59;151758.69;;;5.60;100.00
51287;BME280;37364;46.974;18.916;2023-04-08T08:54:29;151799.97;;;5.76;100.00
51287;BME280;37364;46.974;18.916;2023-04-08T08:57:01;151793.53;;;5.73;100.00
51287;BME280;37364;46.974;18.916;2023-04-08T08:59:31;151761.31;;;5.61;100.00
51287;BME280;37364;46.974;18.916;2023-04-08T09:02:01;151699.38;;;5.36;100.00
51287;BME280;37364;46.974;18.916;2023-04-08T09:04:34;151732.91;;;5.49;100.00
51287;BME280;37364;46.974;18.916;2023-04-08T09:07:08;151741.94;;;5.53;100.00
51287;BME280;37364;46.974;18.916;2023-04-08T09:09:47;151807.72;;;5.79;100.00
51287;BME280;37364;46.974;18.916;2023-04-08T09:12:18;151759.97;;;5.60;100.00
51287;BME280;37364;46.974;18.916;2023-04-08T09:14:49;151756.16;;;5.59;100.00
51287;BME280;37364;46.974;18.916;2023-04-08T09:17:30;151781.94;;;5.69;100.00
51287;BME280;37364;46.974;18.916;2023-04-08T09:20:09;151821.94;;;5.85;100.00
51287;BME280;37364;46.974;18.916;2023-04-08T09:23:05;151720.00;;;5.44;100.00
51287;BME280;37364;46.974;18.916;2023-04-08T09:25:36;151700.66;;;5.37;100.00
51287;BME280;37364;46.974;18.916;2023-04-08T09:28:18;151670.97;;;5.25;100.00
51287;BME280;37364;46.974;18.916;2023-04-08T09:30:49;151745.78;;;5.54;100.00
51287;BME280;37364;46.974;18.916;2023-04-08T09:33:29;151732.91;;;5.49;100.00
51287;BME280;37364;46.974;18.916;2023-04-08T09:36:03;151747.09;;;5.55;100.00
51287;BME280;37364;46.974;18.916;2023-04-08T09:38:34;151735.47;;;5.50;100.00
51287;BME280;37364;46.974;18.916;2023-04-08T09:41:06;151739.34;;;5.52;100.00
51287;BME280;37364;46.974;18.916;2023-04-08T09:43:43;151646.47;;;5.15;100.00
51287;BME280;37364;46.974;18.916;2023-04-08T09:46:25;151632.28;;;5.09;100.00
51287;BME280;37364;46.974;18.916;2023-04-08T09:49:00;151674.84;;;5.26;100.00
51287;BME280;37364;46.974;18.916;2023-04-08T09:51:38;151713.56;;;5.42;100.00
51287;BME280;37364;46.974;18.916;2023-04-08T09:54:13;151705.81;;;5.39;100.00
51287;BME280;37364;46.974;18.916;2023-04-08T09:56:50;151744.50;;;5.54;100.00
51287;BME280;37364;46.974;18.916;2023-04-08T09:59:26;151771.63;;;5.65;100.00
51287;BME280;37364;46.974;18.916;2023-04-08T10:02:04;151696.75;;;5.35;100.00
51287;BME280;37364;46.974;18.916;2023-04-08T10:04:38;151744.50;;;5.54;100.00
51287;BME280;37364;46.974;18.916;2023-04-08T10:07:14;151756.16;;;5.59;100.00
51287;BME280;37364;46.974;18.916;2023-04-08T10:09:48;151744.50;;;5.54;100.00
51287;BME280;37364;46.974;18.916;2023-04-08T10:12:19;151654.22;;;5.18;100.00
51287;BME280;37364;46.974;18.916;2023-04-08T10:15:25;151686.44;;;5.31;100.00
51287;BME280;37364;46.974;18.916;2023-04-08T10:20:57;151659.41;;;5.20;100.00
51287;BME280;37364;46.974;18.916;2023-04-08T10:23:55;151667.09;;;5.23;100.00
51287;BME280;37364;46.974;18.916;2023-04-08T10:26:34;151652.97;;;5.18;100.00
51287;BME280;37364;46.974;18.916;2023-04-08T10:29:29;151670.97;;;5.25;100.00
51287;BME280;37364;46.974;18.916;2023-04-08T10:32:00;151658.13;;;5.20;100.00
51287;BME280;37364;46.974;18.916;2023-04-08T10:34:33;151690.34;;;5.32;100.00
51287;BME280;37364;46.974;18.916;2023-04-08T10:37:04;151690.34;;;5.32;100.00
51287;BME280;37364;46.974;18.916;2023-04-08T10:39:48;151652.97;;;5.18;100.00
51287;BME280;37364;46.974;18.916;2023-04-08T10:42:19;151624.56;;;5.06;100.00
51287;BME280;37364;46.974;18.916;2023-04-08T10:44:59;151629.72;;;5.08;100.00
51287;BME280;37364;46.974;18.916;2023-04-08T10:47:30;151652.97;;;5.18;100.00
51287;BME280;37364;46.974;18.916;2023-04-08T10:50:00;151637.44;;;5.11;100.00
51287;BME280;37364;46.974;18.916;2023-04-08T10:52:45;151667.09;;;5.23;100.00
51287;BME280;37364;46.974;18.916;2023-04-08T10:55:24;151680.03;;;5.28;100.00
51287;BME280;37364;46.974;18.916;2023-04-08T10:57:55;151687.78;;;5.31;100.00
51287;BME280;37364;46.974;18.916;2023-04-08T11:00:32;151638.78;;;5.12;100.00
51287;BME280;37364;46.974;18.916;2023-04-08T11:03:05;151680.03;;;5.28;100.00
51287;BME280;37364;46.974;18.916;2023-04-08T11:05:36;151682.63;;;5.29;100.00
51287;BME280;37364;46.974;18.916;2023-04-08T11:08:09;151699.38;;;5.36;100.00
51287;BME280;37364;46.974;18.916;2023-04-08T11:10:42;151696.75;;;5.35;100.00
51287;BME280;37364;46.974;18.916;2023-04-08T11:13:14;151674.84;;;5.26;100.00
51287;BME280;37364;46.974;18.916;2023-04-08T11:15:47;151660.66;;;5.21;100.00
51287;BME280;37364;46.974;18.916;2023-04-08T11:18:17;151673.59;;;5.26;100.00
51287;BME280;37364;46.974;18.916;2023-04-08T11:20:49;151654.22;;;5.18;100.00
51287;BME280;37364;46.974;18.916;2023-04-08T11:23:20;151673.59;;;5.26;100.00
51287;BME280;37364;46.974;18.916;2023-04-08T11:25:54;151670.97;;;5.25;100.00
51287;BME280;37364;46.974;18.916;2023-04-08T11:28:24;151623.31;;;5.06;100.00
51287;BME280;37364;46.974;18.916;2023-04-08T11:30:55;151709.69;;;5.40;100.00
51287;BME280;37364;46.974;18.916;2023-04-08T11:33:29;151714.84;;;5.42;100.00
51287;BME280;37364;46.974;18.916;2023-04-08T11:36:01;151670.97;;;5.25;100.00
51287;BME280;37364;46.974;18.916;2023-04-08T11:38:38;151682.63;;;5.29;100.00
51287;BME280;37364;46.974;18.916;2023-04-08T11:41:12;151660.66;;;5.21;100.00
51287;BME280;37364;46.974;18.916;2023-04-08T11:43:52;151668.44;;;5.24;100.00
51287;BME280;37364;46.974;18.916;2023-04-08T11:46:23;151650.34;;;5.17;100.00
51287;BME280;37364;46.974;18.916;2023-04-08T11:48:58;151619.44;;;5.04;100.00
51287;BME280;37364;46.974;18.916;2023-04-08T11:51:29;151628.47;;;5.08;100.00
51287;BME280;37364;46.974;18.916;2023-04-08T11:54:03;151656.78;;;5.19;100.00
51287;BME280;37364;46.974;18.916;2023-04-08T11:56:46;151664.53;;;5.22;100.00
51287;BME280;37364;46.974;18.916;2023-04-08T11:59:18;151670.97;;;5.25;100.00
51287;BME280;37364;46.974;18.916;2023-04-08T12:01:50;151637.44;;;5.11;100.00
51287;BME280;37364;46.974;18.916;2023-04-08T12:04:20;151596.19;;;4.95;100.00
51287;BME280;37364;46.974;18.916;2023-04-08T12:06:51;151611.66;;;5.01;100.00
51287;BME280;37364;46.974;18.916;2023-04-08T12:09:24;151654.22;;;5.18;100.00
51287;BME280;37364;46.974;18.916;2023-04-08T12:11:57;151570.44;;;4.85;100.00
51287;BME280;37364;46.974;18.916;2023-04-08T12:14:29;151594.91;;;4.94;100.00
51287;BME280;37364;46.974;18.916;2023-04-08T12:17:02;151606.50;;;4.99;100.00
51287;BME280;37364;46.974;18.916;2023-04-08T12:19:32;151614.25;;;5.02;100.00
51287;BME280;37364;46.974;18.916;2023-04-08T12:22:04;151623.31;;;5.06;100.00
51287;BME280;37364;46.974;18.916;2023-04-08T12:24:34;151638.78;;;5.12;100.00
51287;BME280;37364;46.974;18.916;2023-04-08T12:27:07;151609.13;;;5.00;100.00
51287;BME280;37364;46.974;18.916;2023-04-08T12:29:37;151606.50;;;4.99;100.00
51287;BME280;37364;46.974;18.916;2023-04-08T12:32:08;151575.56;;;4.87;100.00
51287;BME280;37364;46.974;18.916;2023-04-08T12:34:38;151572.97;;;4.86;100.00
51287;BME280;37364;46.974;18.916;2023-04-08T12:37:09;151607.78;;;5.00;100.00
51287;BME280;37364;46.974;18.916;2023-04-08T12:39:39;151580.72;;;4.89;100.00
51287;BME280;37364;46.974;18.916;2023-04-08T12:42:12;151605.22;;;4.99;100.00
51287;BME280;37364;46.974;18.916;2023-04-08T12:44:42;151588.44;;;4.92;100.00
51287;BME280;37364;46.974;18.916;2023-04-08T12:47:13;151574.31;;;4.86;100.00
51287;BME280;37364;46.974;18.916;2023-04-08T12:49:43;151580.72;;;4.89;100.00
51287;BME280;37364;46.974;18.916;2023-04-08T12:52:15;151605.22;;;4.99;100.00
51287;BME280;37364;46.974;18.916;2023-04-08T12:54:46;151623.31;;;5.06;100.00
51287;BME280;37364;46.974;18.916;2023-04-08T12:57:19;151589.78;;;4.92;100.00
51287;BME280;37364;46.974;18.916;2023-04-08T12:59:50;151562.66;;;4.82;100.00
51287;BME280;37364;46.974;18.916;2023-04-08T13:02:20;151589.78;;;4.92;100.00
51287;BME280;37364;46.974;18.916;2023-04-08T13:04:51;151611.66;;;5.01;100.00
51287;BME280;37364;46.974;18.916;2023-04-08T13:07:22;151659.41;;;5.20;100.00
51287;BME280;37364;46.974;18.916;2023-04-08T13:09:59;151680.03;;;5.28;100.00
51287;BME280;37364;46.974;18.916;2023-04-08T13:12:32;151683.91;;;5.30;100.00
51287;BME280;37364;46.974;18.916;2023-04-08T13:15:06;151725.16;;;5.46;100.00